LJMB/MBX METAR and TAF weather

Enter ICAO airport designator
Station Type Date Time Source
LJMB METAR 2022/06/28 09:30 UTC NOAA

LJMB 280930Z 03007KT 340V080 9999 FEW033 SCT250 27/18 Q1019


Station Type Date Time Source
LJMB Decoded METAR 2022/06/28 09:30 UTC NOAA

Maribor / Slivnica, Slovenia (LJMB) 46-29N 015-41E 265M
Jun 28, 2022 - 05:30 AM EDT / 2022.06.28 0930 UTC
Wind: from the NNE (030 degrees) at 8 MPH (7 KT) (direction variable):0
Visibility: greater than 7 mile(s):0
Sky conditions: partly cloudy
Temperature: 80 F (27 C)
Dew Point: 64 F (18 C)
Relative Humidity: 57%
Pressure (altimeter): 30.09 in. Hg (1019 hPa)
ob: LJMB 280930Z 03007KT 340V080 9999 FEW033 SCT250 27/18 Q1019
cycle: 9

Station Type Date Time Source
LJMB TAF 2022/06/28 06:06 UTC NOAA

TAF LJMB 280500Z 2806/2906 01005KT CAVOK PROB30
TEMPO 2812/2817 VRB15G25KT 5000 TSRA BKN050CB PROB30
TEMPO 2902/2906 VRB15G25KT 5000 TSRA BKN040CB

Example: see airport list